Ardmore Seamariner — V7CU9 — position and weather

sailwx.info

Track history (hours):
 
Tides and Currents Weather Stations Pressure Air Temp Water Temp Dewpoint Dewpoint Depression Visibility Wind Speed Wind Dir Waves Ship Positions

Ardmore Seamariner

Last reported at 2018-Apr-26 22:27 UTC. Time now 2018-May-20 17:55 UTC.
Position N 05°58' E 001°25'.
Warning: this ship's position is 23 days out of date.

Length 180 m; draft 9.3 m.

Type: Tanker. MMSI: 538005329.

Date/timePositionNaut miles runAvg speedWind from/ knotsBaromVisibWave heightAir tempDewpointWater temp
2018-Apr-26 22:27N 05°58' E 001°25'612.4
2018-Apr-26 21:59N 06°02' E 001°21'4 8.0
2018-Apr-26 21:30N 06°05' E 001°19'0 0.5
2018-Apr-26 21:00N 06°05' E 001°18'0 0.0
2018-Apr-26 20:30N 06°05' E 001°18'0 0.0
2018-Apr-26 20:00N 06°05' E 001°18'6 0.3
2018-Apr-25 21:39N 05°60' E 001°18'0 0.1
2018-Apr-25 21:06N 05°60' E 001°18'0 0.1
2018-Apr-25 21:00N 05°60' E 001°18'0 0.1
2018-Apr-25 20:30N 05°60' E 001°18'0 0.0
2018-Apr-25 19:48N 05°60' E 001°18'0 0.0
2018-Apr-25 19:18N 05°60' E 001°18'0 0.0
2018-Apr-25 19:00N 05°60' E 001°18'2 0.2
2018-Apr-25 08:32N 05°59' E 001°19'0 0.4
2018-Apr-25 08:24N 05°59' E 001°19'0 0.6
2018-Apr-25 08:00N 05°59' E 001°19'1 1.8
2018-Apr-25 07:28N 05°60' E 001°19'2 4.1
2018-Apr-25 07:00N 06°02' E 001°19'2 3.2
2018-Apr-25 06:29N 06°03' E 001°19'0 0.2
2018-Apr-25 05:58N 06°03' E 001°19'0 0.0
2018-Apr-25 05:22N 06°03' E 001°19'0 0.0
2018-Apr-25 04:37N 06°03' E 001°19'0 0.0
2018-Apr-25 04:28N 06°03' E 001°19'0 0.0
2018-Apr-25 03:55N 06°03' E 001°19'0 0.1
2018-Apr-25 03:19N 06°03' E 001°19'0 0.1
2018-Apr-25 02:49N 06°03' E 001°19'0 0.1
2018-Apr-25 02:25N 06°03' E 001°19'0 0.0
2018-Apr-25 01:52N 06°03' E 001°19'0 0.0
2018-Apr-25 01:19N 06°03' E 001°19'0 0.0
2018-Apr-25 00:58N 06°03' E 001°19'0 0.1
2018-Apr-25 00:28N 06°03' E 001°19'0 0.1
2018-Apr-24 23:58N 06°03' E 001°19'0 0.0
2018-Apr-24 23:28N 06°03' E 001°19'0 0.0
2018-Apr-24 22:58N 06°03' E 001°19'0 0.0
2018-Apr-24 22:10N 06°03' E 001°19'0 0.0
2018-Apr-24 21:43N 06°03' E 001°19'0 0.0
2018-Apr-24 17:34N 06°03' E 001°19'  
Track history (hours):
 
Tides and Currents Weather Stations Pressure Air Temp Water Temp Dewpoint Dewpoint Depression Visibility Wind Speed Wind Dir Waves Ship Positions

Ardmore Seamariner

Last reported at 2018-Apr-26 22:27 UTC. Time now 2018-May-20 17:55 UTC.
Position N 05°58' E 001°25'.
Warning: this ship's position is 23 days out of date.

Length 180 m; draft 9.3 m.

Type: Tanker. MMSI: 538005329.

Date/timePositionNaut miles runAvg speedWind from/ knotsBaromVisibWave heightAir tempDewpointWater temp
2018-Apr-26 22:27N 05°58' E 001°25'612.4
2018-Apr-26 21:59N 06°02' E 001°21'4 8.0
2018-Apr-26 21:30N 06°05' E 001°19'0 0.5
2018-Apr-26 21:00N 06°05' E 001°18'0 0.0
2018-Apr-26 20:30N 06°05' E 001°18'0 0.0
2018-Apr-26 20:00N 06°05' E 001°18'6 0.3
2018-Apr-25 21:39N 05°60' E 001°18'0 0.1
2018-Apr-25 21:06N 05°60' E 001°18'0 0.1
2018-Apr-25 21:00N 05°60' E 001°18'0 0.1
2018-Apr-25 20:30N 05°60' E 001°18'0 0.0
2018-Apr-25 19:48N 05°60' E 001°18'0 0.0
2018-Apr-25 19:18N 05°60' E 001°18'0 0.0
2018-Apr-25 19:00N 05°60' E 001°18'2 0.2
2018-Apr-25 08:32N 05°59' E 001°19'0 0.4
2018-Apr-25 08:24N 05°59' E 001°19'0 0.6
2018-Apr-25 08:00N 05°59' E 001°19'1 1.8
2018-Apr-25 07:28N 05°60' E 001°19'2 4.1
2018-Apr-25 07:00N 06°02' E 001°19'2 3.2
2018-Apr-25 06:29N 06°03' E 001°19'0 0.2
2018-Apr-25 05:58N 06°03' E 001°19'0 0.0
2018-Apr-25 05:22N 06°03' E 001°19'0 0.0
2018-Apr-25 04:37N 06°03' E 001°19'0 0.0
2018-Apr-25 04:28N 06°03' E 001°19'0 0.0
2018-Apr-25 03:55N 06°03' E 001°19'0 0.1
2018-Apr-25 03:19N 06°03' E 001°19'0 0.1
2018-Apr-25 02:49N 06°03' E 001°19'0 0.1
2018-Apr-25 02:25N 06°03' E 001°19'0 0.0
2018-Apr-25 01:52N 06°03' E 001°19'0 0.0
2018-Apr-25 01:19N 06°03' E 001°19'0 0.0
2018-Apr-25 00:58N 06°03' E 001°19'0 0.1
2018-Apr-25 00:28N 06°03' E 001°19'0 0.1
2018-Apr-24 23:58N 06°03' E 001°19'0 0.0
2018-Apr-24 23:28N 06°03' E 001°19'0 0.0
2018-Apr-24 22:58N 06°03' E 001°19'0 0.0
2018-Apr-24 22:10N 06°03' E 001°19'0 0.0
2018-Apr-24 21:43N 06°03' E 001°19'0 0.0
2018-Apr-24 17:34N 06°03' E 001°19'  

Dump ship's entire track history